GB-0090 weather

CLOSED RAF Aldermaston
Berkshire, England, United Kingdom

Public forecast

Using degrees Celsius for public forecast. Weather courtesy of forecast.io.

METAR (pilot weather report)

Closest report is RAF Odiham, 11.1 nm (20.5 km) SE. Retrieved 2019/03/26 17:50 UTC (34 minutes ago):

EGVO 261750Z 32005KT 9999 FEW042 11/02 Q1032 BLU NOSIG

TAF (pilot weather forecast)

Closest forecast is RAF Odiham, 11.1 nm (20.5 km) SE. Retrieved 2019/03/26 15:33 UTC (3 hours ago):

TAF TAF EGVO 261318Z 2615/2703 32005KT 9999 BKN040